KP59

Copper Harbor Airport

Michigan, USA
METAR KP59 182051Z AUTO 07004KT 18/12 A3005 RMK AO1 SLP176 T01780122 58014
Observed Flight Rules
Aug-18 @ 20:51 UTC (an hour ago)
Wind
70° at 4 knots
Temperatures Readings
Current 18°C / 64°F
Dewpoint 12°C / 54°F
Humidity 68%
Altimeter 30.05" Hg
Pressure 1017.6 hPa
Elevation 190
METAR KP59 182051Z AUTO 07004KT 18/12 A3005 RMK AO1 SLP176 T01780122 58014
Observed Flight Rules
Aug-18 @ 20:51 UTC
(an hour ago)
Wind
70° at 4 knots
Temperature Dewpoint
18°C / 64°F 12°C / 54°F
Humidity Altimeter Pressure
68% 30.05" Hg 1017.6 hPa